Time;durP1;ratioP1;P1;durP2;ratioP2;P2;SDS_P1;SDS_P2;PMS_P1;PMS_P2;Temp;Humidity;BMP_temperature;BMP_pressure;BME280_temperature;BME280_humidity;BME280_pressure;Samples;Min_cycle;Max_cycle;Signal;HPM_P1;HPM_P2
2023/03/22 00:00:55;;;;;;;21.65;9.48;;;10.40;99.90;;;;;;5073961;28;20043;-60
2023/03/22 00:03:21;;;;;;;15.50;9.20;;;10.40;99.90;;;;;;5073802;28;20503;-59
2023/03/22 00:05:47;;;;;;;20.10;8.65;;;10.30;99.90;;;;;;5074130;28;20040;-60
2023/03/22 00:08:13;;;;;;;15.10;8.88;;;10.40;99.90;;;;;;5073823;28;20036;-61
2023/03/22 00:10:40;;;;;;;15.80;9.48;;;10.30;99.90;;;;;;5074151;28;20036;-61
2023/03/22 00:13:08;;;;;;;18.60;9.55;;;10.40;99.90;;;;;;5073501;28;20040;-60
2023/03/22 00:15:34;;;;;;;20.13;10.93;;;10.40;99.90;;;;;;5073506;28;20368;-60
2023/03/22 00:18:00;;;;;;;23.30;10.30;;;10.40;99.90;;;;;;5084467;28;20047;-60
2023/03/22 00:20:29;;;;;;;15.63;9.38;;;10.30;99.90;;;;;;5093696;28;20044;-60
2023/03/22 00:22:58;;;;;;;16.33;8.68;;;10.40;99.90;;;;;;5094059;28;20119;-59
2023/03/22 00:25:24;;;;;;;17.42;8.38;;;10.30;99.90;;;;;;5093780;28;20039;-60
2023/03/22 00:27:49;;;;;;;19.40;8.57;;;10.40;99.90;;;;;;5092395;28;20040;-60
2023/03/22 00:30:15;;;;;;;15.63;7.95;;;10.30;99.90;;;;;;5076378;28;20068;-60
2023/03/22 00:32:41;;;;;;;14.98;7.07;;;10.30;99.90;;;;;;5073504;28;20029;-60
2023/03/22 00:35:08;;;;;;;13.45;7.57;;;10.30;99.90;;;;;;5073456;28;20041;-59
2023/03/22 00:37:37;;;;;;;13.40;7.47;;;10.30;99.90;;;;;;5072008;28;20048;-59
2023/03/22 00:40:08;;;;;;;15.65;7.85;;;10.30;99.90;;;;;;5073280;28;20463;-60
2023/03/22 00:42:35;;;;;;;12.95;6.95;;;10.30;99.90;;;;;;5073052;28;20123;-59
2023/03/22 00:45:00;;;;;;;11.82;6.82;;;10.30;99.90;;;;;;5072886;28;20036;-59
2023/03/22 00:47:26;;;;;;;13.07;6.40;;;10.30;99.90;;;;;;5073176;28;20040;-60
2023/03/22 00:49:52;;;;;;;15.02;7.03;;;10.20;99.90;;;;;;5073207;28;20039;-59
2023/03/22 00:52:17;;;;;;;10.65;6.40;;;10.20;99.90;;;;;;5072783;28;20067;-59
2023/03/22 00:54:43;;;;;;;14.80;6.95;;;10.20;99.90;;;;;;5072902;28;20112;-59
2023/03/22 00:57:09;;;;;;;11.52;6.05;;;10.20;99.90;;;;;;5072845;28;20405;-59
2023/03/22 00:59:38;;;;;;;14.50;5.53;;;10.20;99.90;;;;;;5072805;28;20053;-60
2023/03/22 01:02:05;;;;;;;13.07;5.20;;;10.20;99.90;;;;;;5072697;28;20527;-60
2023/03/22 01:04:31;;;;;;;13.27;5.85;;;10.20;99.90;;;;;;5072792;28;20119;-59
2023/03/22 01:07:02;;;;;;;15.05;5.53;;;10.10;99.90;;;;;;5072535;28;20466;-60
2023/03/22 01:09:29;;;;;;;12.40;5.63;;;10.10;99.90;;;;;;5071522;28;20036;-59
2023/03/22 01:11:56;;;;;;;13.68;5.68;;;10.10;99.90;;;;;;5072586;28;20523;-61
2023/03/22 01:14:24;;;;;;;15.20;5.60;;;10.10;99.90;;;;;;5072412;28;20493;-60
2023/03/22 01:16:50;;;;;;;9.30;4.57;;;10.10;99.90;;;;;;5072553;28;20040;-60
2023/03/22 01:19:15;;;;;;;10.95;5.22;;;10.10;99.90;;;;;;5072304;28;20041;-61
2023/03/22 01:21:41;;;;;;;10.80;4.57;;;10.10;99.90;;;;;;5072658;28;20043;-60
2023/03/22 01:24:07;;;;;;;14.70;4.38;;;10.00;99.90;;;;;;5072568;28;20036;-60
2023/03/22 01:26:33;;;;;;;14.32;4.60;;;10.10;99.90;;;;;;5072705;28;20548;-60
2023/03/22 01:28:58;;;;;;;14.20;4.53;;;10.10;99.90;;;;;;5072462;28;20032;-60
2023/03/22 01:31:24;;;;;;;12.05;4.28;;;10.00;99.90;;;;;;5072395;28;20127;-60
2023/03/22 01:33:50;;;;;;;10.35;3.85;;;10.10;99.90;;;;;;5072422;28;20115;-59
2023/03/22 01:36:16;;;;;;;7.22;3.08;;;10.00;99.90;;;;;;5073235;28;20028;-60
2023/03/22 01:38:41;;;;;;;8.90;3.17;;;10.10;99.90;;;;;;5072414;28;20131;-60
2023/03/22 01:41:07;;;;;;;12.40;3.90;;;10.00;99.90;;;;;;5072231;28;20429;-60
2023/03/22 01:43:32;;;;;;;12.50;3.42;;;10.00;99.90;;;;;;5072428;28;20041;-59
2023/03/22 01:45:58;;;;;;;7.28;3.15;;;10.00;99.90;;;;;;5078701;28;20043;-60
2023/03/22 01:48:34;;;;;;;9.35;3.50;;;10.00;99.90;;;;;;5092350;28;20076;-59
2023/03/22 01:51:08;;;;;;;8.85;3.00;;;10.00;99.90;;;;;;5092370;28;20101;-59
2023/03/22 01:53:41;;;;;;;11.60;2.92;;;9.90;99.90;;;;;;5092348;28;20044;-60
2023/03/22 01:56:08;;;;;;;11.63;3.50;;;9.90;99.90;;;;;;5092499;28;20046;-59
2023/03/22 01:58:36;;;;;;;10.00;2.70;;;10.00;99.90;;;;;;5092324;28;20089;-59
2023/03/22 02:01:04;;;;;;;8.73;3.13;;;9.90;99.90;;;;;;5092092;28;20040;-60
2023/03/22 02:03:44;;;;;;;9.95;2.40;;;9.90;99.90;;;;;;5091407;28;20086;-60
2023/03/22 02:06:09;;;;;;;6.85;2.03;;;9.90;99.90;;;;;;5091986;28;20047;-59
2023/03/22 02:08:35;;;;;;;8.10;2.50;;;9.90;99.90;;;;;;5090228;28;20561;-59
2023/03/22 02:11:03;;;;;;;12.20;2.85;;;10.00;99.90;;;;;;5092084;28;20050;-61
2023/03/22 02:13:49;;;;;;;12.05;2.45;;;9.90;99.90;;;;;;5091370;28;20036;-61
2023/03/22 02:16:37;;;;;;;8.48;2.35;;;9.90;99.90;;;;;;5095097;28;20044;-60
2023/03/22 02:19:20;;;;;;;11.13;2.13;;;9.90;99.90;;;;;;5096448;28;20036;-60
2023/03/22 02:22:10;;;;;;;12.95;2.80;;;9.90;99.90;;;;;;5096183;28;20119;-59
2023/03/22 02:25:12;;;;;;;10.88;2.45;;;9.80;99.90;;;;;;5095043;28;20039;-59
2023/03/22 02:28:04;;;;;;;9.77;2.05;;;9.80;99.90;;;;;;5096389;28;20044;-59
2023/03/22 02:30:42;;;;;;;10.30;2.38;;;9.90;99.90;;;;;;5096233;28;20036;-60
2023/03/22 02:33:28;;;;;;;8.43;2.60;;;9.80;99.90;;;;;;5095218;28;20093;-60
2023/03/22 02:36:41;;;;;;;8.65;1.83;;;9.90;99.90;;;;;;5094175;28;20048;-59
2023/03/22 02:39:16;;;;;;;8.60;2.00;;;9.90;99.90;;;;;;5033161;28;20058;-60
2023/03/22 02:41:50;;;;;;;9.50;2.00;;;9.90;99.90;;;;;;5033369;28;20049;-59
2023/03/22 02:44:34;;;;;;;10.20;2.30;;;9.90;99.90;;;;;;5033259;28;20415;-59
2023/03/22 02:47:19;;;;;;;7.80;1.70;;;9.90;99.90;;;;;;5016178;28;20056;-60
2023/03/22 02:50:00;;;;;;;6.22;1.85;;;9.90;99.90;;;;;;5033355;28;20083;-59
2023/03/22 02:52:33;;;;;;;8.95;1.80;;;9.90;99.90;;;;;;5032950;28;20527;-59
2023/03/22 02:55:11;;;;;;;10.07;2.47;;;9.90;99.90;;;;;;5033088;28;20123;-59
2023/03/22 02:57:53;;;;;;;8.88;2.10;;;9.90;99.90;;;;;;5033051;28;20084;-60
2023/03/22 03:00:19;;;;;;;8.77;1.77;;;9.90;99.90;;;;;;5016503;28;20041;-60
2023/03/22 03:02:52;;;;;;;12.55;2.10;;;9.90;99.90;;;;;;5032657;28;20053;-59
2023/03/22 03:05:20;;;;;;;9.43;2.05;;;10.00;99.90;;;;;;5033116;28;20041;-59
2023/03/22 03:07:53;;;;;;;10.48;2.10;;;10.00;99.90;;;;;;5032965;28;20144;-59
2023/03/22 03:10:19;;;;;;;5.90;1.70;;;10.00;99.90;;;;;;5032931;28;20042;-59
2023/03/22 03:12:45;;;;;;;13.00;2.17;;;10.10;99.90;;;;;;5032678;28;20052;-59
2023/03/22 03:15:17;;;;;;;12.15;2.80;;;10.00;99.90;;;;;;5059715;28;20052;-60
2023/03/22 03:18:12;;;;;;;8.25;1.73;;;10.00;99.90;;;;;;5074787;28;20154;-60
2023/03/22 03:21:06;;;;;;;5.65;1.30;;;10.00;99.90;;;;;;5089850;28;20373;-59
2023/03/22 03:23:58;;;;;;;11.95;1.95;;;10.00;99.90;;;;;;5095243;28;20040;-60
2023/03/22 03:26:30;;;;;;;8.15;1.90;;;10.00;99.90;;;;;;5094662;28;20074;-60
2023/03/22 03:29:26;;;;;;;13.38;2.65;;;10.10;99.90;;;;;;5094974;28;20036;-59
2023/03/22 03:32:24;;;;;;;10.77;1.90;;;10.10;99.90;;;;;;5095113;28;20098;-60
2023/03/22 03:35:08;;;;;;;8.88;2.00;;;10.10;99.90;;;;;;5032256;28;20104;-59
2023/03/22 03:37:43;;;;;;;8.88;2.35;;;10.10;99.90;;;;;;5032015;28;20155;-60
2023/03/22 03:40:13;;;;;;;9.75;2.42;;;10.10;99.90;;;;;;5012718;28;20054;-60
2023/03/22 03:42:48;;;;;;;11.75;2.13;;;10.10;99.90;;;;;;5012586;28;20049;-59
2023/03/22 03:45:15;;;;;;;9.07;2.05;;;10.10;99.90;;;;;;4996130;28;20523;-59
2023/03/22 03:47:45;;;;;;;13.55;1.90;;;10.10;99.90;;;;;;5012186;28;20076;-59
2023/03/22 03:50:14;;;;;;;10.98;2.40;;;10.10;99.90;;;;;;5002827;28;20491;-59
2023/03/22 03:52:40;;;;;;;;;;;10.10;99.90;;;;;;5032603;28;20053;-59
2023/03/22 03:55:06;;;;;;;9.25;1.92;;;10.10;99.90;;;;;;5031997;28;20375;-59
2023/03/22 03:57:32;;;;;;;13.82;2.65;;;10.10;99.90;;;;;;5032038;28;20071;-60
2023/03/22 03:59:57;;;;;;;11.88;2.97;;;10.00;99.90;;;;;;5031855;28;20054;-59
2023/03/22 04:02:23;;;;;;;7.32;1.83;;;10.10;99.90;;;;;;5031826;28;20041;-59
2023/03/22 04:04:48;;;;;;;11.68;2.03;;;10.10;99.90;;;;;;5031395;28;20053;-60
2023/03/22 04:07:14;;;;;;;13.75;2.58;;;10.10;99.90;;;;;;5031741;28;20118;-59
2023/03/22 04:09:40;;;;;;;7.65;2.88;;;10.10;99.90;;;;;;5031652;28;20538;-60
2023/03/22 04:12:08;;;;;;;15.38;3.33;;;10.10;99.90;;;;;;5057649;28;20066;-60
2023/03/22 04:14:34;;;;;;;13.20;2.90;;;10.10;99.90;;;;;;5073656;28;20494;-60
2023/03/22 04:17:00;;;;;;;9.32;2.70;;;10.10;99.90;;;;;;5073794;28;20069;-60
2023/03/22 04:19:26;;;;;;;6.70;2.05;;;10.10;99.90;;;;;;5073543;28;20041;-60
2023/03/22 04:21:52;;;;;;;12.10;2.20;;;10.10;99.90;;;;;;5073591;28;20507;-59
2023/03/22 04:24:19;;;;;;;10.98;2.80;;;10.00;99.90;;;;;;5073409;28;20036;-60
2023/03/22 04:26:45;;;;;;;9.27;2.40;;;10.10;99.90;;;;;;5077535;28;20089;-59
2023/03/22 04:29:11;;;;;;;11.73;2.83;;;10.10;99.90;;;;;;5093772;28;20031;-59
2023/03/22 04:31:37;;;;;;;11.10;2.67;;;10.00;99.90;;;;;;5093789;28;20033;-59
2023/03/22 04:34:06;;;;;;;14.18;2.70;;;10.00;99.90;;;;;;5093699;28;20089;-59
2023/03/22 04:36:38;;;;;;;9.05;2.63;;;10.00;99.90;;;;;;5093710;28;20157;-59
2023/03/22 04:39:06;;;;;;;9.95;2.50;;;10.00;99.90;;;;;;5092782;28;20048;-59
2023/03/22 04:41:33;;;;;;;9.27;2.33;;;10.00;99.90;;;;;;5092332;28;20054;-59
2023/03/22 04:44:02;;;;;;;15.48;3.40;;;10.00;99.90;;;;;;5093303;28;20478;-59
2023/03/22 04:46:32;;;;;;;9.15;3.03;;;10.00;99.90;;;;;;5093307;28;20119;-59
2023/03/22 04:48:58;;;;;;;16.17;3.75;;;10.00;99.90;;;;;;5093393;28;20036;-60
2023/03/22 04:51:25;;;;;;;11.30;4.10;;;10.00;99.90;;;;;;5093467;28;20131;-59
2023/03/22 04:53:52;;;;;;;10.07;4.43;;;10.10;99.90;;;;;;5093178;28;20447;-59
2023/03/22 04:56:18;;;;;;;9.30;3.90;;;10.00;99.90;;;;;;5093083;28;20385;-59
2023/03/22 04:58:44;;;;;;;13.18;4.40;;;10.00;99.90;;;;;;5093188;28;20040;-59
2023/03/22 05:01:12;;;;;;;12.50;4.40;;;10.00;99.90;;;;;;5093185;28;20040;-59
2023/03/22 05:03:38;;;;;;;11.57;4.72;;;10.00;99.90;;;;;;5092528;28;20032;-59
2023/03/22 05:06:06;;;;;;;13.63;4.90;;;10.00;99.90;;;;;;5093192;28;20432;-59
2023/03/22 05:08:32;;;;;;;16.10;5.32;;;10.10;99.90;;;;;;5092172;28;20036;-59
2023/03/22 05:11:03;;;;;;;13.88;4.70;;;10.10;99.90;;;;;;5093007;28;20081;-59
2023/03/22 05:13:29;;;;;;;11.07;5.68;;;10.10;99.90;;;;;;5092706;28;20498;-59
2023/03/22 05:15:54;;;;;;;13.27;5.60;;;10.20;99.90;;;;;;5093041;28;20874;-59
2023/03/22 05:18:25;;;;;;;11.57;5.47;;;10.20;99.90;;;;;;5092807;28;20035;-59
2023/03/22 05:20:53;;;;;;;12.20;5.82;;;10.20;99.90;;;;;;5093057;28;20120;-60
2023/03/22 05:23:19;;;;;;;11.95;5.63;;;10.20;99.90;;;;;;5092688;28;20069;-60
2023/03/22 05:25:50;;;;;;;13.38;6.80;;;10.20;99.90;;;;;;5091972;28;20394;-59
2023/03/22 05:28:18;;;;;;;13.02;6.07;;;10.30;99.90;;;;;;5092614;28;20046;-59
2023/03/22 05:30:44;;;;;;;13.77;6.70;;;10.30;99.90;;;;;;5093006;28;20032;-59
2023/03/22 05:33:11;;;;;;;12.60;7.13;;;10.30;99.90;;;;;;5092667;28;20521;-59
2023/03/22 05:35:38;;;;;;;12.55;6.78;;;10.40;99.90;;;;;;5090496;28;20028;-59
2023/03/22 05:38:05;;;;;;;15.07;7.05;;;10.30;99.90;;;;;;5099464;28;20051;-59
2023/03/22 05:40:31;;;;;;;15.02;7.55;;;10.30;99.90;;;;;;5110074;28;20409;-59
2023/03/22 05:42:57;;;;;;;15.23;7.88;;;10.30;99.90;;;;;;5096934;28;20034;-59
2023/03/22 05:45:23;;;;;;;14.70;7.18;;;10.30;99.90;;;;;;5112848;28;20039;-59
2023/03/22 05:47:50;;;;;;;15.90;8.30;;;10.30;99.90;;;;;;5096089;28;20041;-59
2023/03/22 05:50:18;;;;;;;16.30;8.38;;;10.30;99.90;;;;;;5094355;28;20043;-59
2023/03/22 05:52:44;;;;;;;15.10;8.00;;;10.30;99.90;;;;;;5112656;28;20085;-59
2023/03/22 05:55:11;;;;;;;16.45;7.45;;;10.30;99.90;;;;;;5096123;28;20032;-59
2023/03/22 05:57:37;;;;;;;14.68;7.90;;;10.40;99.90;;;;;;5092607;28;20036;-59
2023/03/22 06:00:08;;;;;;;18.02;8.32;;;10.30;99.90;;;;;;5091318;28;20418;-59
2023/03/22 06:02:34;;;;;;;15.40;7.97;;;10.40;99.90;;;;;;5092189;28;20127;-59
2023/03/22 06:05:00;;;;;;;15.05;8.40;;;10.40;99.90;;;;;;5092311;28;20115;-59
2023/03/22 06:07:25;;;;;;;16.95;8.50;;;10.40;99.90;;;;;;5073962;28;20048;-59
2023/03/22 06:09:51;;;;;;;13.90;8.05;;;10.40;99.90;;;;;;5091460;28;20075;-59
2023/03/22 06:12:18;;;;;;;15.90;8.13;;;10.30;99.90;;;;;;5091146;28;20044;-59
2023/03/22 06:14:44;;;;;;;14.85;9.10;;;10.30;99.90;;;;;;5092100;28;20040;-59
2023/03/22 06:17:10;;;;;;;13.98;7.78;;;10.30;99.90;;;;;;5092059;28;20036;-60
2023/03/22 06:19:36;;;;;;;11.75;7.90;;;10.40;99.90;;;;;;5109526;28;20389;-59
2023/03/22 06:22:02;;;;;;;15.50;8.70;;;10.40;99.90;;;;;;5112364;28;20047;-60
2023/03/22 06:24:27;;;;;;;15.70;8.27;;;10.40;99.90;;;;;;5112229;28;20086;-60
2023/03/22 06:26:53;;;;;;;15.57;8.60;;;10.40;99.90;;;;;;5112439;28;20039;-59
2023/03/22 06:29:19;;;;;;;12.48;8.40;;;10.40;99.90;;;;;;5112471;28;20032;-59
2023/03/22 06:31:44;;;;;;;15.52;9.05;;;10.40;99.90;;;;;;5112376;28;20043;-59
2023/03/22 06:34:10;;;;;;;16.25;9.77;;;10.50;99.90;;;;;;5112388;28;20173;-59
2023/03/22 06:36:36;;;;;;;18.05;9.15;;;10.40;99.90;;;;;;5112419;28;20059;-59
2023/03/22 06:39:03;;;;;;;16.70;8.98;;;10.40;99.90;;;;;;5112171;28;20520;-57
2023/03/22 06:41:29;;;;;;;16.45;9.10;;;10.40;99.90;;;;;;5112382;28;20132;-57
2023/03/22 06:43:55;;;;;;;15.15;9.32;;;10.50;99.90;;;;;;5100720;28;20486;-58
2023/03/22 06:46:21;;;;;;;21.42;9.95;;;10.50;99.90;;;;;;5092344;28;20032;-57
2023/03/22 06:48:46;;;;;;;15.73;8.82;;;10.60;99.90;;;;;;5101615;28;20036;-59
2023/03/22 06:51:12;;;;;;;15.18;9.25;;;10.60;99.90;;;;;;5083240;28;20440;-59
2023/03/22 06:53:38;;;;;;;15.50;9.75;;;10.60;99.90;;;;;;5071520;28;20041;-59
2023/03/22 06:56:04;;;;;;;16.77;9.55;;;10.60;99.90;;;;;;5071830;28;20087;-59
2023/03/22 06:58:29;;;;;;;16.17;9.55;;;10.60;99.90;;;;;;5071486;28;20041;-59
2023/03/22 07:00:55;;;;;;;18.17;10.10;;;10.70;99.90;;;;;;5072423;28;20036;-59
2023/03/22 07:03:21;;;;;;;18.10;9.63;;;10.60;99.90;;;;;;5073949;28;20055;-59
2023/03/22 07:05:47;;;;;;;16.10;9.18;;;10.70;99.90;;;;;;5073671;28;20119;-59
2023/03/22 07:08:12;;;;;;;14.98;9.18;;;10.80;99.90;;;;;;5074798;28;20032;-59
2023/03/22 07:10:38;;;;;;;22.05;9.80;;;10.80;99.90;;;;;;5075056;28;20044;-59
2023/03/22 07:13:04;;;;;;;19.60;8.90;;;10.90;99.90;;;;;;5081950;28;20474;-59
2023/03/22 07:15:31;;;;;;;19.50;9.45;;;10.90;99.90;;;;;;5115310;28;20036;-59
2023/03/22 07:17:59;;;;;;;18.75;9.23;;;11.00;99.90;;;;;;5113070;28;20050;-59
2023/03/22 07:20:25;;;;;;;15.83;8.30;;;11.00;99.90;;;;;;5095218;28;20072;-59
2023/03/22 07:22:51;;;;;;;16.80;8.35;;;11.00;99.90;;;;;;5094929;28;20040;-60
2023/03/22 07:25:17;;;;;;;17.00;9.07;;;11.00;99.90;;;;;;5094962;28;20044;-60
2023/03/22 07:27:43;;;;;;;15.07;8.23;;;11.10;99.90;;;;;;5095084;28;20040;-59
2023/03/22 07:30:09;;;;;;;13.68;8.35;;;11.00;99.90;;;;;;5094968;28;20028;-59
2023/03/22 07:32:35;;;;;;;18.30;8.30;;;11.10;99.90;;;;;;5094867;28;20169;-59
2023/03/22 07:35:00;;;;;;;14.80;7.90;;;11.10;99.90;;;;;;5093765;28;20123;-60
2023/03/22 07:37:26;;;;;;;14.15;7.53;;;11.10;99.90;;;;;;5094810;28;20051;-59
2023/03/22 07:39:53;;;;;;;15.82;8.57;;;11.10;99.90;;;;;;5095051;28;20076;-59
2023/03/22 07:42:19;;;;;;;13.48;7.32;;;11.20;99.90;;;;;;5094634;28;20117;-59
2023/03/22 07:44:45;;;;;;;15.15;7.43;;;11.10;99.90;;;;;;5092091;28;20047;-59
2023/03/22 07:47:11;;;;;;;16.10;8.07;;;11.10;99.90;;;;;;5094573;28;20043;-59
2023/03/22 07:49:37;;;;;;;16.58;7.65;;;11.10;99.90;;;;;;5109783;28;20415;-59
2023/03/22 07:52:03;;;;;;;14.18;7.68;;;11.10;99.90;;;;;;5114864;28;20031;-59
2023/03/22 07:54:29;;;;;;;19.02;7.75;;;11.10;99.90;;;;;;5100585;28;20043;-59
2023/03/22 07:56:54;;;;;;;11.82;7.07;;;11.10;99.90;;;;;;5094774;28;20039;-58
2023/03/22 07:59:21;;;;;;;15.73;7.30;;;11.10;99.90;;;;;;5094913;28;20036;-58
2023/03/22 08:01:47;;;;;;;12.73;6.88;;;11.10;99.90;;;;;;5110195;28;20044;-58
2023/03/22 08:04:12;;;;;;;13.70;6.75;;;11.20;99.90;;;;;;5101806;28;20092;-58
2023/03/22 08:06:39;;;;;;;15.07;6.63;;;11.30;99.90;;;;;;5102221;28;20394;-58
2023/03/22 08:09:07;;;;;;;14.48;6.05;;;11.40;99.90;;;;;;5108938;28;20520;-58
2023/03/22 08:11:33;;;;;;;13.98;6.88;;;11.40;99.90;;;;;;5096879;28;20382;-58
2023/03/22 08:13:58;;;;;;;12.23;5.97;;;11.50;99.90;;;;;;5109531;28;20432;-58
2023/03/22 08:16:24;;;;;;;14.10;6.07;;;11.50;99.90;;;;;;5107698;28;20477;-59
2023/03/22 08:18:50;;;;;;;15.10;6.50;;;11.50;99.90;;;;;;5108543;28;20043;-58
2023/03/22 08:21:15;;;;;;;13.40;6.75;;;11.50;99.90;;;;;;5097085;28;20557;-59
2023/03/22 08:23:41;;;;;;;11.25;6.50;;;11.40;99.90;;;;;;5110535;28;20397;-59
2023/03/22 08:26:07;;;;;;;13.57;6.10;;;11.40;99.90;;;;;;5106735;28;20040;-58
2023/03/22 08:28:33;;;;;;;18.02;5.68;;;11.50;99.90;;;;;;5104214;28;20047;-59
2023/03/22 08:30:58;;;;;;;12.50;6.00;;;11.50;99.90;;;;;;5099145;28;20040;-58
2023/03/22 08:33:24;;;;;;;13.00;5.70;;;11.40;99.90;;;;;;5109956;28;20055;-59
2023/03/22 08:35:50;;;;;;;13.10;6.03;;;11.50;99.90;;;;;;5092048;28;20809;-58
2023/03/22 08:38:16;;;;;;;13.48;5.25;;;11.50;99.90;;;;;;5101442;28;20055;-58
2023/03/22 08:40:45;;;;;;;12.02;6.10;;;11.50;99.90;;;;;;5101399;28;20048;-58
2023/03/22 08:43:11;;;;;;;16.17;5.25;;;11.60;99.90;;;;;;5109003;28;20042;-59
2023/03/22 08:45:36;;;;;;;13.95;5.72;;;11.60;99.90;;;;;;5096216;28;20040;-59
2023/03/22 08:48:02;;;;;;;17.55;6.97;;;11.60;99.90;;;;;;5105365;28;20048;-58
2023/03/22 08:50:28;;;;;;;14.77;5.13;;;11.60;99.90;;;;;;5102861;28;20039;-58
2023/03/22 08:52:55;;;;;;;12.98;5.63;;;11.60;99.90;;;;;;5111519;28;20118;-58
2023/03/22 08:55:21;;;;;;;13.77;5.50;;;11.60;99.90;;;;;;5096195;28;20040;-59
2023/03/22 08:57:49;;;;;;;18.83;6.05;;;11.70;99.90;;;;;;5108736;27;20369;-58
2023/03/22 09:00:16;;;;;;;11.60;5.20;;;11.80;99.90;;;;;;5101094;28;20047;-58
2023/03/22 09:02:42;;;;;;;10.63;4.63;;;11.80;99.90;;;;;;5101061;28;20145;-58
2023/03/22 09:05:08;;;;;;;23.23;4.88;;;11.80;99.90;;;;;;5108316;28;20228;-58
2023/03/22 09:07:34;;;;;;;11.93;4.95;;;11.80;99.90;;;;;;5095855;28;20036;-58
2023/03/22 09:10:00;;;;;;;10.63;5.03;;;11.90;99.90;;;;;;5106217;28;20036;-59
2023/03/22 09:12:25;;;;;;;14.65;4.82;;;11.80;99.90;;;;;;5102115;28;20104;-59
2023/03/22 09:14:51;;;;;;;14.75;4.53;;;11.80;99.90;;;;;;5081165;28;20043;-59
2023/03/22 09:17:17;;;;;;;14.75;4.63;;;11.80;99.90;;;;;;5108879;28;20046;-58
2023/03/22 09:19:44;;;;;;;9.32;4.28;;;11.80;99.90;;;;;;5096021;28;20046;-58
2023/03/22 09:22:10;;;;;;;12.18;4.20;;;11.80;99.90;;;;;;5104995;28;20479;-57
2023/03/22 09:24:36;;;;;;;10.45;4.28;;;11.80;99.90;;;;;;5102989;28;20093;-59
2023/03/22 09:27:02;;;;;;;10.45;3.97;;;11.70;99.90;;;;;;5097649;28;20048;-59
2023/03/22 09:29:27;;;;;;;11.98;4.43;;;11.70;99.90;;;;;;5108756;28;20071;-59
2023/03/22 09:31:53;;;;;;;10.48;3.83;;;11.80;99.90;;;;;;5096960;28;20137;-58
2023/03/22 09:34:19;;;;;;;9.63;3.60;;;11.80;99.90;;;;;;5103336;28;20036;-58
2023/03/22 09:36:46;;;;;;;8.27;3.55;;;11.80;99.90;;;;;;5090504;28;20115;-58
2023/03/22 09:39:11;;;;;;;11.32;4.18;;;11.80;99.90;;;;;;5107756;28;20056;-58
2023/03/22 09:41:45;;;;;;;12.73;4.22;;;11.80;99.90;;;;;;5095045;28;20101;-58
2023/03/22 09:44:21;;;;;;;13.93;4.10;;;11.80;99.90;;;;;;5104311;27;20039;-58
2023/03/22 09:46:51;;;;;;;14.25;3.65;;;11.80;99.90;;;;;;5104750;28;20036;-58
2023/03/22 09:49:25;;;;;;;7.85;3.47;;;11.80;99.90;;;;;;5095450;28;20039;-58
2023/03/22 09:51:53;;;;;;;11.20;3.88;;;11.80;99.90;;;;;;5110284;28;20544;-59
2023/03/22 09:54:28;;;;;;;9.13;3.47;;;11.70;99.90;;;;;;5103476;28;20121;-58
2023/03/22 09:57:09;;;;;;;9.05;4.00;;;11.70;99.90;;;;;;5105477;28;20047;-58
2023/03/22 09:59:55;;;;;;;16.23;3.72;;;11.70;99.90;;;;;;5095300;28;20047;-58
2023/03/22 10:02:30;;;;;;;13.90;3.67;;;11.60;99.90;;;;;;5103141;28;20163;-59
2023/03/22 10:05:11;;;;;;;10.98;3.70;;;11.50;99.90;;;;;;5105875;28;20082;-58
2023/03/22 10:08:12;;;;;;;13.05;4.15;;;11.40;99.90;;;;;;5095067;28;20397;-58
2023/03/22 10:10:40;;;;;;;10.20;4.20;;;11.30;99.90;;;;;;5017970;28;20104;-58
2023/03/22 10:13:20;;;;;;;10.15;3.30;;;11.30;99.90;;;;;;5024302;28;20081;-58
2023/03/22 10:15:51;;;;;;;10.43;3.65;;;11.30;99.90;;;;;;4997682;28;20120;-58
2023/03/22 10:18:31;;;;;;;14.07;3.58;;;11.20;99.90;;;;;;5020779;28;20128;-59
2023/03/22 10:21:00;;;;;;;8.57;3.58;;;11.10;99.90;;;;;;5022913;28;20133;-59
2023/03/22 10:23:33;;;;;;;10.45;4.05;;;11.00;99.90;;;;;;4996322;28;20524;-59
2023/03/22 10:26:01;;;;;;;12.25;4.18;;;11.00;99.90;;;;;;5023090;28;20046;-59
2023/03/22 10:28:40;;;;;;;10.93;3.90;;;10.90;99.90;;;;;;5018788;28;20060;-58
2023/03/22 10:31:12;;;;;;;11.47;4.60;;;10.90;99.90;;;;;;5014220;28;20101;-58
2023/03/22 10:33:55;;;;;;;12.10;4.15;;;10.90;99.90;;;;;;5025201;28;20315;-58
2023/03/22 10:36:25;;;;;;;11.57;4.07;;;10.90;99.90;;;;;;5019617;28;20045;-58
2023/03/22 10:38:58;;;;;;;5.75;3.58;;;10.80;99.90;;;;;;5019744;28;20050;-58
2023/03/22 10:41:24;;;;;;;10.63;4.63;;;10.80;99.90;;;;;;5012901;28;20060;-58
2023/03/22 10:43:57;;;;;;;8.68;4.05;;;10.70;99.90;;;;;;5017686;28;20052;-58
2023/03/22 10:46:26;;;;;;;10.02;3.90;;;10.70;99.90;;;;;;5029794;28;20373;-58
2023/03/22 10:48:58;;;;;;;11.68;3.90;;;10.70;99.90;;;;;;5108462;28;20040;-58
2023/03/22 10:51:33;;;;;;;10.70;4.47;;;10.70;99.90;;;;;;5098292;28;20122;-58
2023/03/22 10:54:00;;;;;;;10.02;4.38;;;10.70;99.90;;;;;;5109556;28;20043;-58
2023/03/22 10:56:26;;;;;;;9.65;3.80;;;10.60;99.90;;;;;;5093498;28;20059;-58
2023/03/22 10:58:55;;;;;;;11.50;4.28;;;10.70;99.90;;;;;;5108603;28;20031;-58
2023/03/22 11:01:31;;;;;;;11.73;4.07;;;10.70;99.90;;;;;;5098365;28;20040;-58
2023/03/22 11:04:07;;;;;;;10.68;3.67;;;10.60;99.90;;;;;;5109875;28;20044;-58
2023/03/22 11:06:38;;;;;;;16.83;4.30;;;10.60;99.90;;;;;;5105890;28;20036;-58
2023/03/22 11:09:30;;;;;;;16.60;4.90;;;10.80;99.90;;;;;;5099996;28;20040;-58
2023/03/22 11:11:58;;;;;;;16.15;4.53;;;10.60;99.90;;;;;;5074687;28;20106;-58
2023/03/22 11:14:30;;;;;;;11.40;4.10;;;10.60;99.90;;;;;;5104538;28;20036;-58
2023/03/22 11:17:04;;;;;;;9.43;4.45;;;10.70;99.90;;;;;;5099623;28;20278;-59
2023/03/22 11:19:48;;;;;;;16.73;5.20;;;10.60;99.90;;;;;;5111210;28;20039;-59
2023/03/22 11:22:20;;;;;;;10.75;3.90;;;10.60;99.90;;;;;;5103040;28;20031;-58
2023/03/22 11:24:46;;;;;;;10.68;3.92;;;10.80;99.90;;;;;;5102476;28;20118;-58
2023/03/22 11:27:20;;;;;;;7.45;4.20;;;10.70;99.90;;;;;;5110755;28;20390;-58
2023/03/22 11:29:49;;;;;;;9.15;4.40;;;10.70;99.90;;;;;;5082470;28;20146;-60
2023/03/22 11:32:20;;;;;;;10.80;3.72;;;10.80;99.90;;;;;;5114475;28;20027;-58
2023/03/22 11:34:46;;;;;;;10.68;4.22;;;10.80;99.90;;;;;;5102458;28;20044;-58
2023/03/22 11:37:16;;;;;;;8.85;3.88;;;10.90;99.90;;;;;;5110682;28;20141;-58
2023/03/22 11:39:48;;;;;;;9.45;4.30;;;10.80;99.90;;;;;;5100234;28;20398;-58
2023/03/22 11:42:18;;;;;;;13.15;4.53;;;10.70;99.90;;;;;;5102319;28;20050;-58
2023/03/22 11:44:44;;;;;;;10.13;3.58;;;10.90;99.90;;;;;;5110218;28;20039;-58
2023/03/22 11:47:12;;;;;;;6.55;3.80;;;10.80;99.90;;;;;;5098046;28;20399;-58
2023/03/22 11:49:50;;;;;;;7.28;3.65;;;10.80;99.90;;;;;;5097588;28;20424;-58
2023/03/22 11:52:26;;;;;;;13.45;4.07;;;10.90;99.90;;;;;;5102654;28;20039;-58
2023/03/22 11:54:53;;;;;;;12.80;3.63;;;10.90;99.90;;;;;;5100951;28;20036;-59
2023/03/22 11:57:24;;;;;;;9.40;3.67;;;10.90;99.90;;;;;;5110717;28;20122;-58
2023/03/22 11:59:59;;;;;;;10.85;4.13;;;11.00;99.90;;;;;;5092373;28;20044;-58
2023/03/22 12:02:31;;;;;;;7.88;3.70;;;10.80;99.90;;;;;;5103636;28;20053;-58
2023/03/22 12:05:23;;;;;;;10.90;3.85;;;10.90;99.90;;;;;;5099801;28;20040;-58
2023/03/22 12:08:17;;;;;;;8.52;3.80;;;10.80;99.90;;;;;;4999363;28;20049;-58
2023/03/22 12:10:46;;;;;;;6.32;3.47;;;10.90;99.90;;;;;;4941574;29;20134;-59
2023/03/22 12:13:22;;;;;;;7.95;3.13;;;10.90;99.90;;;;;;4949057;29;20039;-58
2023/03/22 12:16:10;;;;;;;10.48;4.30;;;10.80;99.90;;;;;;4945349;29;20047;-59
2023/03/22 12:18:56;;;;;;;7.38;3.58;;;10.90;99.90;;;;;;4928129;29;20058;-58
2023/03/22 12:21:22;;;;;;;6.93;3.28;;;10.80;99.90;;;;;;4949784;29;20134;-58
2023/03/22 12:23:48;;;;;;;7.45;3.83;;;10.80;99.90;;;;;;4937780;29;20122;-58
2023/03/22 12:26:23;;;;;;;5.65;3.33;;;10.90;99.90;;;;;;4945351;29;20052;-58
2023/03/22 12:29:05;;;;;;;9.77;3.65;;;10.90;99.90;;;;;;4945864;29;20051;-59
2023/03/22 12:31:50;;;;;;;11.80;4.13;;;10.90;99.90;;;;;;4936738;29;20062;-59
2023/03/22 12:34:19;;;;;;;6.68;3.10;;;11.00;99.90;;;;;;4944328;29;20052;-59
2023/03/22 12:36:51;;;;;;;7.43;3.83;;;11.00;99.90;;;;;;4945191;29;20048;-59
2023/03/22 12:39:27;;;;;;;9.57;4.05;;;11.00;99.90;;;;;;4936468;29;20131;-59
2023/03/22 12:41:56;;;;;;;8.13;3.92;;;11.00;99.90;;;;;;4947518;29;20052;-58
2023/03/22 12:44:43;;;;;;;12.30;3.92;;;10.90;99.90;;;;;;4971049;28;20179;-58
2023/03/22 12:47:22;;;;;;;8.00;3.95;;;10.80;99.90;;;;;;5049177;28;20063;-58
2023/03/22 12:50:11;;;;;;;8.15;4.10;;;10.80;99.90;;;;;;5082671;28;20051;-58
2023/03/22 12:52:47;;;;;;;8.75;4.13;;;10.70;99.90;;;;;;5021408;28;20045;-58
2023/03/22 12:55:36;;;;;;;14.20;4.43;;;10.80;99.90;;;;;;4997854;28;20046;-58